Time;durP1;ratioP1;P1;durP2;ratioP2;P2;SDS_P1;SDS_P2;PMS_P1;PMS_P2;Temp;Humidity;BMP_temperature;BMP_pressure;BME280_temperature;BME280_humidity;BME280_pressure;Samples;Min_cycle;Max_cycle;Signal;HPM_P1;HPM_P2
2021/04/09 00:01:55;;;;;;;8.48;6.60;;;3.90;71.50;;;;;;5015310;28;20041;-60
2021/04/09 00:04:20;;;;;;;10.32;6.68;;;3.90;71.60;;;;;;5015278;28;20045;-60
2021/04/09 00:06:46;;;;;;;10.35;6.97;;;3.80;71.90;;;;;;5030959;28;20366;-60
2021/04/09 00:09:12;;;;;;;10.40;6.97;;;3.70;72.30;;;;;;5032570;28;20095;-60
2021/04/09 00:11:39;;;;;;;10.98;7.88;;;3.70;72.60;;;;;;5017333;28;20424;-60
2021/04/09 00:14:07;;;;;;;16.58;7.75;;;3.80;72.20;;;;;;5013474;28;20038;-59
2021/04/09 00:16:33;;;;;;;15.52;7.95;;;3.80;72.30;;;;;;5025942;28;20036;-59
2021/04/09 00:18:59;;;;;;;13.02;7.53;;;3.70;72.60;;;;;;5031689;28;20033;-61
2021/04/09 00:21:25;;;;;;;13.77;7.72;;;3.60;73.00;;;;;;5020339;28;20040;-58
2021/04/09 00:23:50;;;;;;;12.10;8.40;;;3.60;73.00;;;;;;5012449;28;20041;-59
2021/04/09 00:26:16;;;;;;;12.73;7.88;;;3.60;72.90;;;;;;5022970;28;20489;-60
2021/04/09 00:28:41;;;;;;;11.55;7.60;;;3.60;72.80;;;;;;5031974;28;20472;-60
2021/04/09 00:31:07;;;;;;;12.80;8.35;;;3.60;72.80;;;;;;5031974;28;20074;-61
2021/04/09 00:33:35;;;;;;;12.98;8.43;;;3.60;72.90;;;;;;5032965;28;20504;-60
2021/04/09 00:36:01;;;;;;;12.93;8.77;;;3.60;73.00;;;;;;5025033;28;20038;-60
2021/04/09 00:38:27;;;;;;;14.38;8.77;;;3.50;73.20;;;;;;5012631;28;20560;-59
2021/04/09 00:40:53;;;;;;;12.32;8.73;;;3.70;72.80;;;;;;5018070;28;20121;-59
2021/04/09 00:43:18;;;;;;;10.63;8.20;;;3.70;72.60;;;;;;5032596;28;20088;-60
2021/04/09 00:45:44;;;;;;;12.55;8.07;;;3.70;72.50;;;;;;5028898;28;20034;-59
2021/04/09 00:48:10;;;;;;;12.10;8.10;;;3.70;72.60;;;;;;5002797;28;20042;-60
2021/04/09 00:50:37;;;;;;;10.05;8.05;;;3.60;72.80;;;;;;4996732;28;20402;-59
2021/04/09 00:53:06;;;;;;;17.50;8.50;;;3.60;73.00;;;;;;5032715;28;20045;-59
2021/04/09 00:55:32;;;;;;;12.57;8.23;;;3.70;73.10;;;;;;5030811;28;20053;-60
2021/04/09 00:57:59;;;;;;;13.35;8.77;;;3.70;72.90;;;;;;5012560;28;20457;-59
2021/04/09 01:00:26;;;;;;;16.90;9.18;;;3.70;72.70;;;;;;5011499;28;20037;-60
2021/04/09 01:02:52;;;;;;;12.05;9.00;;;3.70;72.80;;;;;;5012192;28;20084;-60
2021/04/09 01:05:19;;;;;;;11.35;9.40;;;3.70;72.60;;;;;;5012758;28;20101;-60
2021/04/09 01:07:45;;;;;;;13.65;8.98;;;3.70;73.10;;;;;;5029304;28;20037;-59
2021/04/09 01:10:14;;;;;;;11.95;9.02;;;3.70;73.30;;;;;;5032225;28;20045;-59
2021/04/09 01:12:40;;;;;;;14.75;9.43;;;3.70;73.20;;;;;;5014930;28;20034;-59
2021/04/09 01:15:09;;;;;;;13.68;8.85;;;3.80;73.00;;;;;;5013343;28;20385;-55
2021/04/09 01:17:34;;;;;;;11.68;8.52;;;3.70;73.10;;;;;;5028474;28;20056;-60
2021/04/09 01:20:24;;;;;;;12.48;9.32;;;3.70;73.00;;;;;;5031589;28;20477;-60
2021/04/09 01:23:18;;;;;;;12.25;7.88;;;3.70;73.20;;;;;;5015091;28;20101;-59
2021/04/09 01:26:01;;;;;;;11.63;7.22;;;3.70;73.10;;;;;;5015885;28;20108;-59
2021/04/09 01:28:45;;;;;;;11.30;7.40;;;3.50;73.70;;;;;;4995876;28;20125;-59
2021/04/09 01:31:29;;;;;;;9.60;6.53;;;3.50;73.60;;;;;;5000752;28;20037;-60
2021/04/09 01:33:58;;;;;;;10.23;6.72;;;3.50;73.90;;;;;;5034773;28;20061;-58
2021/04/09 01:36:31;;;;;;;11.55;6.85;;;3.40;73.90;;;;;;5031643;28;20490;-59
2021/04/09 01:39:10;;;;;;;10.60;7.32;;;3.40;74.00;;;;;;5015971;28;20120;-60
2021/04/09 01:41:38;;;;;;;12.15;8.50;;;3.30;74.40;;;;;;5015375;28;20030;-60
2021/04/09 01:44:06;;;;;;;12.02;7.80;;;3.30;74.50;;;;;;5018915;28;20021;-57
2021/04/09 01:46:36;;;;;;;8.75;7.47;;;3.30;74.70;;;;;;5035049;28;20060;-57
2021/04/09 01:49:02;;;;;;;13.27;9.75;;;3.20;74.90;;;;;;5028650;28;20045;-55
2021/04/09 01:51:28;;;;;;;16.00;11.15;;;3.20;74.90;;;;;;5033220;28;20076;-59
2021/04/09 01:53:55;;;;;;;15.35;11.25;;;3.20;75.30;;;;;;5036557;28;20026;-59
2021/04/09 01:56:22;;;;;;;17.15;12.15;;;3.10;75.50;;;;;;5036423;28;20026;-59
2021/04/09 01:58:49;;;;;;;18.05;12.82;;;3.10;75.70;;;;;;5034525;28;20030;-60
2021/04/09 02:01:15;;;;;;;17.67;13.65;;;3.10;76.00;;;;;;4994898;28;20433;-58
2021/04/09 02:03:44;;;;;;;17.88;13.48;;;3.10;76.00;;;;;;4995326;28;20132;-61
2021/04/09 02:06:13;;;;;;;17.15;13.43;;;3.10;76.20;;;;;;5032726;28;20138;-59
2021/04/09 02:08:39;;;;;;;19.27;14.25;;;3.10;76.30;;;;;;5033973;28;20164;-60
2021/04/09 02:11:05;;;;;;;20.65;14.43;;;3.00;76.50;;;;;;5016530;28;20116;-58
2021/04/09 02:13:32;;;;;;;20.75;15.23;;;3.00;76.30;;;;;;5014216;28;20068;-58
2021/04/09 02:15:59;;;;;;;21.77;14.75;;;3.10;76.00;;;;;;5030415;28;20509;-60
2021/04/09 02:18:25;;;;;;;22.48;14.57;;;3.10;76.10;;;;;;5033983;28;20025;-60
2021/04/09 02:20:52;;;;;;;18.73;13.90;;;3.00;76.20;;;;;;5019265;28;20112;-59
2021/04/09 02:23:18;;;;;;;22.17;13.05;;;3.00;76.60;;;;;;5014349;28;20389;-60
2021/04/09 02:25:44;;;;;;;15.98;11.52;;;3.00;76.60;;;;;;5027010;28;20049;-60
2021/04/09 02:28:10;;;;;;;18.23;11.95;;;3.10;76.10;;;;;;5033422;28;20033;-59
2021/04/09 02:30:35;;;;;;;15.75;11.02;;;3.10;75.90;;;;;;5022241;28;20034;-60
2021/04/09 02:33:01;;;;;;;16.23;10.40;;;3.10;75.70;;;;;;5013987;28;20474;-60
2021/04/09 02:35:26;;;;;;;14.63;10.43;;;2.90;76.30;;;;;;5023494;28;20034;-61
2021/04/09 02:37:53;;;;;;;12.73;9.25;;;2.90;77.00;;;;;;5033994;28;20473;-56
2021/04/09 02:40:27;;;;;;;13.50;9.02;;;2.70;77.70;;;;;;5025622;28;20457;-60
2021/04/09 02:42:53;;;;;;;12.25;8.10;;;2.60;77.90;;;;;;5013826;28;20030;-59
2021/04/09 02:45:21;;;;;;;12.40;7.78;;;2.60;78.20;;;;;;5017513;28;20034;-59
2021/04/09 02:47:48;;;;;;;12.57;7.07;;;2.60;77.90;;;;;;5033369;28;20079;-58
2021/04/09 02:50:23;;;;;;;11.35;7.10;;;2.60;78.60;;;;;;5021130;28;20033;-58
2021/04/09 02:52:55;;;;;;;11.60;7.78;;;2.60;77.90;;;;;;5032556;28;20155;-58
2021/04/09 02:55:25;;;;;;;11.20;8.05;;;2.60;77.80;;;;;;5026387;28;20522;-58
2021/04/09 02:57:53;;;;;;;13.00;7.85;;;2.60;77.90;;;;;;5013010;28;20120;-57
2021/04/09 03:00:20;;;;;;;13.18;7.72;;;2.60;78.10;;;;;;5018630;28;20088;-59
2021/04/09 03:02:48;;;;;;;12.65;7.65;;;2.60;77.70;;;;;;5033229;28;20682;-60
2021/04/09 03:05:15;;;;;;;12.90;8.55;;;2.70;77.60;;;;;;5028672;28;20550;-59
2021/04/09 03:07:41;;;;;;;11.05;8.25;;;2.70;77.40;;;;;;5013122;28;20111;-60
2021/04/09 03:10:12;;;;;;;13.10;9.02;;;2.80;77.00;;;;;;5016010;28;20029;-58
2021/04/09 03:12:40;;;;;;;15.15;10.55;;;2.80;77.00;;;;;;5033615;28;20045;-59
2021/04/09 03:15:06;;;;;;;17.48;11.20;;;2.80;76.90;;;;;;5029222;28;20148;-61
2021/04/09 03:17:43;;;;;;;18.02;12.20;;;2.80;76.80;;;;;;5013312;28;20032;-61
2021/04/09 03:20:09;;;;;;;21.05;14.70;;;2.90;76.60;;;;;;5015285;28;20112;-60
2021/04/09 03:22:35;;;;;;;21.73;15.18;;;2.90;76.20;;;;;;5032757;28;20224;-60
2021/04/09 03:25:00;;;;;;;18.77;14.90;;;2.80;76.20;;;;;;5025203;28;20037;-59
2021/04/09 03:27:26;;;;;;;19.45;15.30;;;2.90;76.10;;;;;;5033261;28;20072;-58
2021/04/09 03:29:52;;;;;;;21.13;15.85;;;2.90;75.80;;;;;;5032562;28;20049;-57
2021/04/09 03:32:18;;;;;;;20.20;15.32;;;2.90;75.80;;;;;;5013543;28;20030;-58
2021/04/09 03:34:44;;;;;;;21.10;13.85;;;2.90;76.00;;;;;;5012990;28;20030;-59
2021/04/09 03:37:10;;;;;;;19.20;13.07;;;2.90;75.80;;;;;;5029675;28;20036;-60
2021/04/09 03:39:36;;;;;;;16.45;11.60;;;2.80;76.40;;;;;;5033016;28;20037;-60
2021/04/09 03:42:03;;;;;;;15.43;11.50;;;2.80;76.40;;;;;;5017285;28;20407;-58
2021/04/09 03:44:28;;;;;;;16.35;10.30;;;2.80;76.70;;;;;;5012877;28;20029;-60
2021/04/09 03:46:54;;;;;;;14.40;10.43;;;2.70;77.00;;;;;;5025460;28;20034;-60
2021/04/09 03:49:19;;;;;;;17.88;9.90;;;2.70;77.40;;;;;;5012085;28;20061;-58
2021/04/09 03:51:45;;;;;;;14.20;10.15;;;2.60;77.30;;;;;;5024440;28;20041;-59
2021/04/09 03:54:11;;;;;;;14.25;9.65;;;2.60;77.20;;;;;;5032040;28;20075;-60
2021/04/09 03:56:37;;;;;;;14.18;10.55;;;2.70;76.80;;;;;;5021446;28;20061;-59
2021/04/09 03:59:02;;;;;;;15.40;12.30;;;2.80;76.60;;;;;;5011263;28;20030;-58
2021/04/09 04:01:29;;;;;;;20.15;11.65;;;2.70;76.40;;;;;;5020962;28;20045;-60
2021/04/09 04:03:55;;;;;;;13.70;11.13;;;2.70;76.50;;;;;;5032361;28;20496;-59
2021/04/09 04:06:22;;;;;;;17.65;12.45;;;2.70;76.40;;;;;;5024795;28;20038;-60
2021/04/09 04:08:48;;;;;;;16.27;10.85;;;2.80;76.00;;;;;;5012127;28;20042;-57
2021/04/09 04:11:13;;;;;;;15.55;11.80;;;2.90;75.80;;;;;;5016066;28;20037;-59
2021/04/09 04:13:39;;;;;;;16.48;11.35;;;2.90;76.00;;;;;;5032267;28;20032;-60
2021/04/09 04:16:05;;;;;;;15.52;10.82;;;3.00;75.40;;;;;;5027921;28;20030;-59
2021/04/09 04:18:31;;;;;;;14.27;10.93;;;3.00;75.30;;;;;;5011726;28;20400;-60
2021/04/09 04:20:57;;;;;;;14.45;10.65;;;3.00;75.60;;;;;;5013959;28;20033;-59
2021/04/09 04:23:22;;;;;;;16.05;10.40;;;3.00;75.50;;;;;;5032151;28;20033;-58
2021/04/09 04:25:48;;;;;;;12.85;10.30;;;2.90;75.90;;;;;;5017876;28;20080;-60
2021/04/09 04:28:14;;;;;;;19.27;11.70;;;2.90;75.70;;;;;;5021183;28;20109;-59
2021/04/09 04:30:39;;;;;;;16.02;11.25;;;2.90;75.90;;;;;;5010713;28;20084;-59
2021/04/09 04:33:05;;;;;;;14.35;10.98;;;3.00;75.70;;;;;;5029192;28;20037;-58
2021/04/09 04:35:30;;;;;;;15.52;10.82;;;3.10;75.40;;;;;;5032170;28;20037;-59
2021/04/09 04:37:59;;;;;;;20.83;13.13;;;3.10;75.30;;;;;;5014745;28;20057;-59
2021/04/09 04:40:24;;;;;;;19.55;12.80;;;3.10;75.00;;;;;;5011396;28;20044;-60
2021/04/09 04:42:50;;;;;;;30.13;19.20;;;3.10;75.10;;;;;;5011987;28;20022;-59
2021/04/09 04:45:17;;;;;;;19.20;14.65;;;3.10;75.50;;;;;;5013498;28;20478;-60
2021/04/09 04:47:43;;;;;;;23.95;14.75;;;3.20;75.00;;;;;;5015512;28;20556;-60
2021/04/09 04:50:09;;;;;;;19.75;14.48;;;3.30;74.70;;;;;;5014609;28;20045;-59
2021/04/09 04:52:34;;;;;;;21.52;16.52;;;3.30;74.60;;;;;;5015841;28;20045;-61
2021/04/09 04:55:00;;;;;;;23.33;17.25;;;3.40;74.50;;;;;;5012194;28;20493;-58
2021/04/09 04:57:25;;;;;;;24.73;17.05;;;3.30;74.70;;;;;;5023689;28;20045;-60
2021/04/09 04:59:51;;;;;;;21.35;16.45;;;3.40;75.10;;;;;;5036813;28;20176;-60
2021/04/09 05:02:16;;;;;;;25.90;17.63;;;3.40;74.30;;;;;;5033445;28;20065;-59
2021/04/09 05:04:42;;;;;;;22.95;17.40;;;3.60;73.60;;;;;;5017004;28;20053;-61
2021/04/09 05:07:07;;;;;;;20.65;16.20;;;3.70;73.40;;;;;;5024473;28;20048;-59
2021/04/09 05:09:33;;;;;;;19.48;14.70;;;3.70;73.20;;;;;;5021575;28;20121;-60
2021/04/09 05:11:58;;;;;;;19.00;14.52;;;3.80;72.90;;;;;;5017240;28;20061;-58
2021/04/09 05:14:24;;;;;;;17.95;14.68;;;3.90;72.60;;;;;;5015213;28;20408;-60
2021/04/09 05:16:50;;;;;;;15.63;12.70;;;4.00;72.50;;;;;;5018383;28;20453;-63
2021/04/09 05:19:15;;;;;;;14.52;11.27;;;4.10;72.20;;;;;;5030835;28;20036;-61
2021/04/09 05:21:41;;;;;;;15.50;10.10;;;4.20;72.00;;;;;;5014913;28;20030;-61
2021/04/09 05:24:07;;;;;;;18.13;10.43;;;4.20;71.60;;;;;;4997194;28;20052;-62
2021/04/09 05:26:32;;;;;;;15.43;10.15;;;4.20;71.60;;;;;;5014800;28;20172;-62
2021/04/09 05:28:58;;;;;;;13.90;10.10;;;4.30;71.50;;;;;;5014189;28;20545;-62
2021/04/09 05:31:23;;;;;;;17.48;10.07;;;4.30;71.40;;;;;;5012106;28;20064;-62
2021/04/09 05:33:49;;;;;;;12.95;10.63;;;4.40;71.30;;;;;;5013647;28;20394;-60
2021/04/09 05:36:15;;;;;;;16.00;11.40;;;4.40;70.90;;;;;;4996257;28;20034;-62
2021/04/09 05:38:40;;;;;;;12.40;9.63;;;4.40;71.00;;;;;;5015443;28;20022;-61
2021/04/09 05:41:06;;;;;;;16.30;9.02;;;4.50;70.40;;;;;;5013695;28;20096;-60
2021/04/09 05:43:31;;;;;;;16.10;9.65;;;4.40;70.50;;;;;;5028858;28;20029;-58
2021/04/09 05:45:57;;;;;;;15.85;10.35;;;4.50;70.70;;;;;;5014226;28;20042;-57
2021/04/09 05:48:22;;;;;;;15.75;10.00;;;4.60;70.50;;;;;;5022942;28;20108;-60
2021/04/09 05:50:48;;;;;;;18.88;10.23;;;4.70;70.10;;;;;;5014139;28;20417;-59
2021/04/09 05:53:14;;;;;;;14.77;9.68;;;4.70;70.20;;;;;;5025328;28;20413;-59
2021/04/09 05:55:40;;;;;;;13.70;9.65;;;4.70;69.60;;;;;;5034364;28;20026;-58
2021/04/09 05:58:06;;;;;;;17.63;9.30;;;4.90;69.50;;;;;;5033324;28;20037;-57
2021/04/09 06:00:32;;;;;;;15.65;9.63;;;4.90;69.10;;;;;;5034005;28;20037;-58
2021/04/09 06:02:58;;;;;;;12.25;9.05;;;5.00;68.70;;;;;;5026170;28;20124;-58
2021/04/09 06:05:23;;;;;;;14.38;10.07;;;5.00;68.80;;;;;;5013994;28;20068;-60
2021/04/09 06:07:49;;;;;;;17.50;10.18;;;5.00;68.80;;;;;;5019718;28;20090;-60
2021/04/09 06:10:15;;;;;;;13.70;9.20;;;5.10;68.90;;;;;;5033325;28;20034;-58
2021/04/09 06:12:41;;;;;;;13.68;9.02;;;5.10;69.00;;;;;;5033082;28;20025;-57
2021/04/09 06:15:08;;;;;;;14.57;10.75;;;5.20;68.30;;;;;;5033603;28;20108;-61
2021/04/09 06:17:34;;;;;;;16.23;10.65;;;5.30;68.60;;;;;;5032133;28;20417;-60
2021/04/09 06:20:00;;;;;;;12.57;9.57;;;5.30;68.50;;;;;;5032874;28;20030;-59
2021/04/09 06:22:26;;;;;;;12.98;9.65;;;5.40;68.50;;;;;;5032005;28;20040;-58
2021/04/09 06:24:51;;;;;;;17.30;9.82;;;5.40;68.80;;;;;;5013127;28;20048;-60
2021/04/09 06:27:17;;;;;;;17.13;11.45;;;5.40;68.70;;;;;;5013281;28;20057;-60
2021/04/09 06:29:42;;;;;;;12.52;9.15;;;5.40;68.80;;;;;;5013004;28;20121;-59
2021/04/09 06:32:08;;;;;;;13.93;9.80;;;5.50;68.50;;;;;;5014181;28;20433;-61
2021/04/09 06:34:34;;;;;;;14.10;9.18;;;5.60;68.50;;;;;;5013352;28;20022;-61
2021/04/09 06:37:00;;;;;;;13.05;8.82;;;5.60;67.80;;;;;;5028132;28;20037;-59
2021/04/09 06:39:25;;;;;;;13.38;8.98;;;5.50;67.80;;;;;;5032419;28;20087;-60
2021/04/09 06:41:51;;;;;;;13.35;9.40;;;5.60;67.90;;;;;;5018925;28;20032;-61
2021/04/09 06:44:17;;;;;;;16.83;8.93;;;5.50;68.00;;;;;;5013272;28;20405;-60
2021/04/09 06:46:43;;;;;;;15.43;9.20;;;5.70;68.10;;;;;;5024862;28;20037;-58
2021/04/09 06:49:10;;;;;;;16.92;10.60;;;5.70;67.90;;;;;;5023444;28;20042;-58
2021/04/09 06:51:36;;;;;;;14.73;8.98;;;5.90;68.00;;;;;;5022747;28;20102;-59
2021/04/09 06:54:02;;;;;;;18.48;9.30;;;5.90;67.40;;;;;;5032694;28;20489;-60
2021/04/09 06:56:29;;;;;;;12.27;8.70;;;6.00;67.40;;;;;;5023378;28;20046;-59
2021/04/09 06:58:56;;;;;;;15.48;9.57;;;5.90;67.70;;;;;;5012652;28;20026;-59
2021/04/09 07:01:24;;;;;;;16.38;8.95;;;5.90;68.10;;;;;;5012254;28;20045;-57
2021/04/09 07:03:53;;;;;;;18.88;8.82;;;6.10;68.00;;;;;;5012808;28;20034;-60
2021/04/09 07:06:19;;;;;;;28.15;10.43;;;6.10;67.60;;;;;;5032649;28;20029;-61
2021/04/09 07:08:45;;;;;;;17.67;9.25;;;6.20;67.20;;;;;;5033530;28;20045;-60
2021/04/09 07:11:10;;;;;;;17.50;9.30;;;6.20;67.30;;;;;;5016250;28;20490;-59
2021/04/09 07:13:49;;;;;;;15.27;9.60;;;6.20;66.90;;;;;;5012321;28;20025;-60
2021/04/09 07:16:15;;;;;;;12.45;8.52;;;6.30;66.80;;;;;;5028827;28;20052;-60
2021/04/09 07:18:52;;;;;;;14.02;9.15;;;6.20;66.60;;;;;;5032257;28;20469;-57
2021/04/09 07:21:29;;;;;;;13.85;8.82;;;6.20;66.40;;;;;;5015337;28;20497;-60
2021/04/09 07:24:13;;;;;;;12.45;8.88;;;6.30;66.80;;;;;;5012873;28;20085;-61
2021/04/09 07:26:55;;;;;;;12.13;8.75;;;6.20;66.70;;;;;;5030370;28;20036;-60
2021/04/09 07:29:36;;;;;;;13.05;8.95;;;6.20;66.30;;;;;;5031771;28;20040;-55
2021/04/09 07:32:12;;;;;;;14.25;9.13;;;6.20;66.90;;;;;;4992727;28;20038;-57
2021/04/09 07:34:52;;;;;;;14.65;8.88;;;6.30;66.90;;;;;;4995094;28;20429;-60
2021/04/09 07:37:20;;;;;;;16.25;9.13;;;6.30;67.80;;;;;;5032006;28;20057;-59
2021/04/09 07:39:46;;;;;;;14.95;9.93;;;6.40;66.40;;;;;;5030096;28;20034;-60
2021/04/09 07:42:13;;;;;;;15.02;9.45;;;6.50;66.40;;;;;;5012461;28;20397;-58
2021/04/09 07:44:41;;;;;;;10.93;9.15;;;6.60;66.40;;;;;;5012291;28;20448;-60
2021/04/09 07:47:11;;;;;;;11.48;9.00;;;6.60;66.40;;;;;;5032197;28;20453;-58
2021/04/09 07:49:37;;;;;;;16.38;9.90;;;6.70;66.30;;;;;;5018491;28;20026;-60
2021/04/09 07:52:10;;;;;;;15.38;9.48;;;6.80;65.80;;;;;;5030652;28;20040;-60
2021/04/09 07:54:36;;;;;;;13.82;9.45;;;6.70;65.70;;;;;;5031999;28;20037;-59
2021/04/09 07:57:02;;;;;;;17.85;9.90;;;6.80;66.20;;;;;;5011914;28;20029;-61
2021/04/09 07:59:38;;;;;;;12.27;8.70;;;6.90;66.10;;;;;;5011708;28;20030;-60
2021/04/09 08:02:05;;;;;;;16.55;9.63;;;7.00;65.10;;;;;;5029723;28;20030;-59
2021/04/09 08:04:41;;;;;;;14.32;9.57;;;7.00;65.00;;;;;;5031571;28;20358;-59
2021/04/09 08:07:07;;;;;;;17.70;8.90;;;7.10;65.30;;;;;;5013511;28;20088;-60
2021/04/09 08:09:50;;;;;;;12.85;9.35;;;7.20;64.90;;;;;;5011503;28;20110;-59
2021/04/09 08:12:29;;;;;;;18.00;8.75;;;7.20;64.50;;;;;;5030404;28;20038;-59
2021/04/09 08:14:55;;;;;;;12.68;9.57;;;7.30;64.30;;;;;;5030828;28;20044;-60
2021/04/09 08:17:23;;;;;;;17.90;9.93;;;7.30;64.00;;;;;;5020090;28;20029;-61
2021/04/09 08:19:58;;;;;;;13.80;9.88;;;7.40;64.00;;;;;;5019658;28;20029;-61
2021/04/09 08:22:24;;;;;;;14.65;9.90;;;7.40;64.00;;;;;;5023747;28;20029;-56
2021/04/09 08:24:50;;;;;;;15.38;9.43;;;7.30;64.00;;;;;;5024092;28;20041;-61
2021/04/09 08:27:16;;;;;;;14.65;8.85;;;7.40;64.70;;;;;;5011270;28;20041;-62
2021/04/09 08:29:43;;;;;;;21.70;10.00;;;7.60;65.50;;;;;;4991804;28;20074;-61
2021/04/09 08:32:10;;;;;;;16.00;9.20;;;7.80;63.20;;;;;;4993881;28;20074;-60
2021/04/09 08:34:37;;;;;;;13.82;9.35;;;7.80;62.70;;;;;;4998383;28;20390;-61
2021/04/09 08:37:03;;;;;;;17.98;9.32;;;8.00;63.00;;;;;;4998130;28;20084;-62
2021/04/09 08:39:29;;;;;;;17.20;10.00;;;8.00;63.30;;;;;;5011143;28;20038;-62
2021/04/09 08:41:56;;;;;;;15.65;9.52;;;8.10;62.50;;;;;;5027296;28;20397;-62
2021/04/09 08:44:22;;;;;;;15.55;8.50;;;8.10;62.30;;;;;;5018085;28;20562;-61
2021/04/09 08:46:48;;;;;;;14.10;8.27;;;8.20;62.40;;;;;;5018063;28;20509;-61
2021/04/09 08:49:16;;;;;;;16.45;8.63;;;8.20;61.90;;;;;;5017640;28;20153;-61
2021/04/09 08:51:43;;;;;;;24.75;9.07;;;8.00;62.20;;;;;;5017445;28;20041;-62
2021/04/09 08:54:14;;;;;;;17.33;10.02;;;8.10;62.70;;;;;;5018445;28;20040;-62
2021/04/09 08:56:41;;;;;;;13.90;9.10;;;8.30;62.80;;;;;;5026125;28;20021;-62
2021/04/09 08:59:06;;;;;;;13.90;8.68;;;8.40;61.80;;;;;;5037330;28;20116;-61
2021/04/09 09:01:32;;;;;;;13.52;9.93;;;8.50;61.30;;;;;;5030138;28;20117;-62
2021/04/09 09:04:22;;;;;;;15.68;9.93;;;8.50;61.80;;;;;;5028250;28;20033;-62
2021/04/09 09:06:49;;;;;;;13.13;8.98;;;8.50;61.00;;;;;;5037206;28;20029;-61
2021/04/09 09:09:32;;;;;;;11.73;8.77;;;8.50;61.60;;;;;;5017704;28;20038;-62
2021/04/09 09:12:02;;;;;;;13.02;9.40;;;8.70;61.40;;;;;;5017879;28;20045;-62
2021/04/09 09:14:34;;;;;;;14.82;8.70;;;8.90;61.20;;;;;;5028178;28;20554;-62
2021/04/09 09:17:18;;;;;;;10.40;8.60;;;9.00;60.70;;;;;;5017661;28;20075;-61
2021/04/09 09:20:06;;;;;;;12.32;8.75;;;9.10;60.30;;;;;;4997920;28;20034;-60
2021/04/09 09:22:46;;;;;;;11.60;8.40;;;9.00;60.20;;;;;;5003783;28;20164;-64
2021/04/09 09:25:12;;;;;;;13.77;8.73;;;9.10;60.30;;;;;;5028110;28;20038;-62
2021/04/09 09:27:51;;;;;;;12.70;9.20;;;9.10;60.00;;;;;;5020345;28;20037;-63
2021/04/09 09:30:37;;;;;;;11.82;8.35;;;9.20;60.30;;;;;;5037219;28;20033;-61
2021/04/09 09:33:25;;;;;;;13.07;8.45;;;9.50;60.10;;;;;;5031123;28;20037;-63
2021/04/09 09:36:05;;;;;;;11.20;8.13;;;9.60;58.50;;;;;;4996451;28;20048;-62
2021/04/09 09:38:51;;;;;;;12.60;8.38;;;9.60;57.80;;;;;;5008508;28;20034;-61
2021/04/09 09:41:33;;;;;;;15.45;8.10;;;9.50;58.10;;;;;;5017315;28;20041;-64
2021/04/09 09:44:00;;;;;;;12.07;8.50;;;9.70;58.40;;;;;;5015218;28;20025;-63
2021/04/09 09:46:56;;;;;;;14.32;7.97;;;9.90;57.70;;;;;;5014179;28;20041;-61
2021/04/09 09:49:23;;;;;;;10.32;8.07;;;10.10;56.20;;;;;;5017181;28;20055;-62
2021/04/09 09:51:49;;;;;;;10.68;8.05;;;10.30;56.50;;;;;;5017003;28;20112;-61
2021/04/09 09:54:26;;;;;;;11.55;8.05;;;10.50;55.40;;;;;;5034218;28;20119;-62
2021/04/09 09:56:52;;;;;;;12.52;8.55;;;10.80;55.60;;;;;;5029179;28;20049;-61
2021/04/09 09:59:19;;;;;;;16.08;7.90;;;10.90;54.30;;;;;;5014024;28;20390;-61
2021/04/09 10:01:53;;;;;;;11.95;8.70;;;11.10;53.90;;;;;;5015567;28;20034;-62
2021/04/09 10:04:20;;;;;;;10.32;8.52;;;11.10;54.40;;;;;;5033981;28;20132;-62
2021/04/09 10:06:51;;;;;;;12.88;9.13;;;11.00;53.60;;;;;;5033329;28;20055;-63
2021/04/09 10:09:24;;;;;;;13.27;8.52;;;10.90;53.60;;;;;;5033485;28;20033;-62
2021/04/09 10:11:49;;;;;;;11.38;8.85;;;11.00;53.90;;;;;;5031779;28;20030;-62
2021/04/09 10:14:15;;;;;;;10.90;8.90;;;11.00;54.10;;;;;;5013972;28;20520;-63
2021/04/09 10:16:40;;;;;;;12.98;8.95;;;11.10;54.10;;;;;;5013921;28;20034;-64
2021/04/09 10:19:07;;;;;;;10.32;7.88;;;11.30;54.00;;;;;;5032670;28;20033;-60
2021/04/09 10:21:36;;;;;;;13.45;8.98;;;11.40;53.60;;;;;;5033514;28;20136;-61
2021/04/09 10:24:07;;;;;;;11.93;8.70;;;11.30;53.50;;;;;;5014920;28;20054;-61
2021/04/09 10:26:38;;;;;;;17.20;9.40;;;11.20;53.00;;;;;;4994231;28;20038;-62
2021/04/09 10:29:23;;;;;;;17.83;10.32;;;11.40;53.60;;;;;;5029480;28;20033;-59
2021/04/09 10:31:51;;;;;;;13.50;9.25;;;11.60;53.80;;;;;;5033086;28;20029;-62
2021/04/09 10:34:27;;;;;;;14.20;8.90;;;11.80;53.90;;;;;;5013345;28;20038;-59
2021/04/09 10:36:54;;;;;;;14.70;9.38;;;11.80;53.10;;;;;;5013567;28;20108;-60
2021/04/09 10:39:22;;;;;;;13.65;9.48;;;11.50;53.00;;;;;;5031954;28;20025;-60
2021/04/09 10:41:52;;;;;;;11.77;9.35;;;11.40;53.60;;;;;;5033020;28;20029;-60
2021/04/09 10:44:24;;;;;;;15.38;9.50;;;11.40;53.70;;;;;;5016081;28;20034;-61
2021/04/09 10:46:58;;;;;;;13.93;10.38;;;11.60;53.60;;;;;;5015108;28;20041;-63
2021/04/09 10:49:30;;;;;;;13.27;10.30;;;11.60;53.70;;;;;;5020269;28;20118;-61
2021/04/09 10:51:58;;;;;;;11.13;9.60;;;11.60;53.80;;;;;;5014268;28;20052;-60
2021/04/09 10:54:25;;;;;;;12.35;9.05;;;11.70;54.00;;;;;;5032785;28;20061;-60
2021/04/09 10:56:54;;;;;;;11.73;9.45;;;11.90;52.80;;;;;;5028666;28;20065;-60
2021/04/09 10:59:23;;;;;;;14.95;10.50;;;11.80;52.00;;;;;;5012676;28;20034;-63
2021/04/09 11:01:49;;;;;;;13.02;9.10;;;11.80;52.80;;;;;;5015229;28;20034;-62
2021/04/09 11:04:16;;;;;;;11.48;9.00;;;11.90;52.00;;;;;;5033034;28;20095;-60
2021/04/09 11:06:55;;;;;;;13.10;8.75;;;11.70;52.10;;;;;;5032042;28;20034;-62
2021/04/09 11:09:21;;;;;;;12.23;9.07;;;11.90;52.50;;;;;;5013204;28;20048;-61
2021/04/09 11:11:47;;;;;;;12.75;9.40;;;12.10;51.90;;;;;;5012781;28;20041;-61
2021/04/09 11:14:18;;;;;;;11.98;8.90;;;12.00;51.80;;;;;;5012376;28;20088;-59
2021/04/09 11:16:58;;;;;;;14.32;8.60;;;12.10;51.90;;;;;;5018208;28;20034;-58
2021/04/09 11:19:28;;;;;;;10.95;8.05;;;12.10;50.90;;;;;;4998298;28;20497;-61
2021/04/09 11:21:56;;;;;;;11.35;8.73;;;12.10;52.20;;;;;;5005037;28;20041;-61
2021/04/09 11:24:28;;;;;;;11.90;8.70;;;12.00;51.20;;;;;;5024020;28;20030;-60
2021/04/09 11:26:54;;;;;;;13.63;8.57;;;11.90;51.90;;;;;;5018682;28;20523;-61
2021/04/09 11:29:39;;;;;;;24.27;9.25;;;12.00;52.70;;;;;;5034183;28;20037;-60
2021/04/09 11:32:20;;;;;;;11.57;6.78;;;12.10;51.50;;;;;;5028263;28;20034;-63
2021/04/09 11:34:48;;;;;;;9.65;7.30;;;12.10;51.10;;;;;;5021483;28;20042;-60
2021/04/09 11:37:17;;;;;;;9.98;7.20;;;12.00;50.80;;;;;;5014840;28;20030;-61
2021/04/09 11:39:51;;;;;;;8.52;7.05;;;11.90;51.00;;;;;;5016681;28;20033;-62
2021/04/09 11:42:30;;;;;;;13.65;7.75;;;11.90;51.10;;;;;;5002607;28;20474;-61
2021/04/09 11:44:56;;;;;;;11.63;7.30;;;12.00;50.80;;;;;;5012086;28;20405;-61
2021/04/09 11:47:25;;;;;;;9.20;7.35;;;12.20;51.30;;;;;;5012801;28;20052;-61
2021/04/09 11:50:22;;;;;;;11.45;7.57;;;12.30;50.40;;;;;;5015342;28;20022;-62
2021/04/09 11:52:56;;;;;;;9.50;6.93;;;12.40;50.00;;;;;;5015252;28;20425;-60
2021/04/09 11:55:24;;;;;;;9.05;7.25;;;12.50;49.90;;;;;;5018684;28;20494;-61
2021/04/09 11:57:50;;;;;;;10.68;7.60;;;12.80;49.70;;;;;;5027027;28;20046;-63
2021/04/09 12:00:34;;;;;;;11.38;7.65;;;12.70;48.60;;;;;;5024268;28;20125;-60
2021/04/09 12:03:05;;;;;;;10.35;7.05;;;12.80;49.20;;;;;;5011356;28;20026;-62
2021/04/09 12:05:33;;;;;;;10.20;7.05;;;12.70;48.70;;;;;;5012756;28;20034;-60
2021/04/09 12:08:00;;;;;;;11.93;7.72;;;12.60;48.40;;;;;;5011775;28;20030;-62
2021/04/09 12:10:28;;;;;;;8.85;7.20;;;12.60;48.30;;;;;;5016427;28;20124;-63
2021/04/09 12:12:54;;;;;;;10.75;8.43;;;12.80;48.70;;;;;;5013124;28;20036;-61
2021/04/09 12:15:22;;;;;;;10.38;7.60;;;13.00;48.10;;;;;;5020773;28;20120;-62
2021/04/09 12:17:48;;;;;;;13.77;8.20;;;13.20;48.00;;;;;;5032485;28;20083;-61
2021/04/09 12:20:19;;;;;;;14.30;7.78;;;13.30;47.70;;;;;;5024779;28;20033;-60
2021/04/09 12:22:45;;;;;;;10.55;7.40;;;13.10;47.50;;;;;;5012939;28;20040;-59
2021/04/09 12:25:13;;;;;;;10.15;7.70;;;12.70;48.50;;;;;;5019498;28;20073;-60
2021/04/09 12:27:40;;;;;;;9.45;7.47;;;12.70;48.70;;;;;;5032479;28;20038;-61
2021/04/09 12:30:08;;;;;;;9.77;7.90;;;12.90;48.90;;;;;;5027528;28;20112;-61
2021/04/09 12:32:34;;;;;;;10.88;8.05;;;13.20;48.40;;;;;;5013149;28;20533;-60
2021/04/09 12:35:00;;;;;;;12.43;8.02;;;13.10;48.60;;;;;;5016352;28;20053;-60
2021/04/09 12:37:25;;;;;;;9.80;7.82;;;13.30;49.00;;;;;;5033428;28;20087;-61
2021/04/09 12:39:51;;;;;;;9.15;7.25;;;13.60;49.90;;;;;;5029884;28;20030;-57
2021/04/09 12:42:17;;;;;;;9.38;7.80;;;13.70;48.00;;;;;;5012463;28;20036;-58
2021/04/09 12:44:43;;;;;;;8.65;6.93;;;13.70;46.90;;;;;;5013454;28;20113;-60
2021/04/09 12:47:09;;;;;;;8.52;6.95;;;13.80;47.60;;;;;;5033137;28;20061;-59
2021/04/09 12:49:37;;;;;;;10.32;7.72;;;13.80;47.50;;;;;;5019454;28;20489;-62
2021/04/09 12:52:04;;;;;;;9.20;7.60;;;13.80;46.60;;;;;;5016965;28;20050;-62